Estherville, Iowa
Current Conditions -  °F | °C
As of 1:04 AM on Thursday 23 Oct 2014 (Local Time) from KEST Reporting Station
Overcast Overcast  
Wind Chill: 12°   Ceiling: 2900
Heat Index: 12°   Visibility: 8mi
Dew Point: 12°   Wind: 10mph
Humidity: 100%   Direction: 180°S
Pressure: 30.02"   Gusts: NA
Location:  43.4°N, 94.84°W
Report Text: KEST 230604Z AUTO 18009KT 8SM FEW022 BKN029 OVC036 12/12 A3002 RMK AO2 T01220122
Loading
Personal Weather Stations






























Interactive Weather Map
Tropical Storm Tracking
New forecast layout! Learn more

10-Day Weather Forecast

Advertisements
Track Severe Weather on mobile